createdAt,value
2019-05-05T00:01:00.981Z,100.00
2019-05-05T00:03:55.088Z,100.00
2019-05-05T00:06:25.005Z,100.00
2019-05-05T00:08:54.777Z,100.00
2019-05-05T00:11:40.005Z,100.00
2019-05-05T00:14:25.338Z,100.00
2019-05-05T00:16:59.236Z,100.00
2019-05-05T00:19:32.563Z,100.00
2019-05-05T00:21:59.373Z,100.00
2019-05-05T00:24:28.556Z,100.00
2019-05-05T00:26:57.889Z,100.00
2019-05-05T00:29:27.171Z,100.00
2019-05-05T00:31:56.504Z,100.00
2019-05-05T00:34:25.679Z,100.00
2019-05-05T00:36:55.435Z,100.00
2019-05-05T00:39:25.481Z,100.00
2019-05-05T00:41:55.590Z,100.00
2019-05-05T00:44:24.849Z,99.98
2019-05-05T00:47:15.999Z,99.58
2019-05-05T00:49:49.451Z,100.00
2019-05-05T00:52:18.396Z,99.99
2019-05-05T00:54:47.651Z,99.06
2019-05-05T00:57:16.867Z,99.16
2019-05-05T00:59:46.427Z,100.00
2019-05-05T01:02:31.010Z,100.00
2019-05-05T01:05:17.836Z,100.00
2019-05-05T01:07:47.144Z,100.00
2019-05-05T01:10:16.324Z,100.00
2019-05-05T01:12:46.631Z,100.00
2019-05-05T01:15:15.926Z,100.00
2019-05-05T01:17:45.590Z,100.00
2019-05-05T01:20:15.908Z,100.00
2019-05-05T01:22:45.108Z,100.00
2019-05-05T01:25:14.988Z,100.00
2019-05-05T01:27:45.333Z,100.00
2019-05-05T01:30:17.975Z,100.00
2019-05-05T01:32:50.009Z,100.00
2019-05-05T01:35:19.342Z,100.00
2019-05-05T01:37:57.521Z,100.00
2019-05-05T01:40:35.682Z,100.00
2019-05-05T01:43:05.383Z,100.00
2019-05-05T01:45:34.831Z,100.00
2019-05-05T01:48:04.929Z,100.00
2019-05-05T01:50:34.979Z,100.00
2019-05-05T01:53:04.809Z,100.00
2019-05-05T01:55:34.828Z,100.00
2019-05-05T01:58:04.855Z,100.00
2019-05-05T02:00:34.824Z,100.00
2019-05-05T02:03:04.641Z,100.00
2019-05-05T02:05:34.862Z,100.00
2019-05-05T02:08:04.941Z,100.00
2019-05-05T02:10:34.996Z,100.00
2019-05-05T02:13:04.761Z,100.00
2019-05-05T02:15:34.471Z,100.00
2019-05-05T02:18:04.546Z,100.00
2019-05-05T02:20:45.884Z,100.00
2019-05-05T02:23:16.870Z,100.00
2019-05-05T02:25:46.029Z,100.00
2019-05-05T02:28:15.180Z,100.00
2019-05-05T02:30:55.120Z,100.00
2019-05-05T02:33:26.139Z,100.00
2019-05-05T02:35:55.903Z,100.00
2019-05-05T02:38:26.139Z,100.00
2019-05-05T02:40:56.931Z,100.00
2019-05-05T02:43:27.310Z,100.00
2019-05-05T02:46:25.561Z,100.00
2019-05-05T02:48:58.210Z,100.00
2019-05-05T02:51:29.460Z,100.00
2019-05-05T02:54:01.012Z,100.00
2019-05-05T02:56:36.582Z,100.00
2019-05-05T02:59:10.789Z,100.00
2019-05-05T03:01:44.670Z,100.00
2019-05-05T03:04:14.321Z,100.00
2019-05-05T03:06:54.020Z,100.00
2019-05-05T03:09:26.446Z,100.00
2019-05-05T03:11:57.655Z,100.00
2019-05-05T03:14:29.298Z,100.00
2019-05-05T03:16:58.987Z,100.00
2019-05-05T03:19:28.214Z,100.00
2019-05-05T03:21:57.510Z,100.00
2019-05-05T03:24:27.187Z,100.00
2019-05-05T03:26:56.738Z,100.00
2019-05-05T03:29:26.663Z,99.89
2019-05-05T03:31:56.688Z,99.47
2019-05-05T03:34:25.996Z,100.00
2019-05-05T03:36:55.125Z,100.00
2019-05-05T03:39:26.257Z,100.00
2019-05-05T03:42:06.263Z,100.00
2019-05-05T03:44:44.217Z,100.00
2019-05-05T03:47:14.161Z,100.00
2019-05-05T03:49:44.169Z,100.00
2019-05-05T03:52:14.337Z,100.00
2019-05-05T03:54:43.893Z,100.00
2019-05-05T03:57:14.248Z,100.00
2019-05-05T03:59:44.923Z,100.00
2019-05-05T04:02:48.081Z,100.00
2019-05-05T04:05:28.338Z,100.00
2019-05-05T04:07:57.643Z,100.00
2019-05-05T04:10:27.367Z,100.00
2019-05-05T04:12:57.528Z,100.00
2019-05-05T04:15:26.652Z,100.00
2019-05-05T04:18:23.729Z,100.00
2019-05-05T04:20:53.430Z,100.00
2019-05-05T04:23:24.491Z,100.00
2019-05-05T04:25:54.431Z,100.00
2019-05-05T04:28:24.129Z,99.80
2019-05-05T04:30:53.727Z,100.00
2019-05-05T04:33:23.666Z,100.00
2019-05-05T04:35:54.554Z,100.00
2019-05-05T04:38:24.326Z,100.00
2019-05-05T04:40:54.245Z,100.00
2019-05-05T04:43:24.599Z,100.00
2019-05-05T04:45:54.140Z,99.55
2019-05-05T04:48:29.116Z,100.00
2019-05-05T04:51:13.895Z,100.00
2019-05-05T04:54:01.035Z,100.00
2019-05-05T04:56:30.840Z,99.42
2019-05-05T04:59:00.003Z,99.06
2019-05-05T05:01:29.200Z,98.94
2019-05-05T05:04:20.146Z,98.77
2019-05-05T05:06:54.084Z,98.02
2019-05-05T05:09:23.785Z,96.92
2019-05-05T05:11:54.729Z,96.84
2019-05-05T05:14:24.722Z,96.93
2019-05-05T05:16:55.028Z,97.14
2019-05-05T05:19:24.357Z,97.70
2019-05-05T05:22:01.189Z,97.66
2019-05-05T05:24:24.642Z,97.57
2019-05-05T05:26:55.504Z,97.43
2019-05-05T05:29:24.803Z,92.44
2019-05-05T05:31:54.190Z,84.10
2019-05-05T05:34:23.945Z,78.22
2019-05-05T05:36:53.717Z,75.09
2019-05-05T05:39:30.763Z,76.56
2019-05-05T05:41:59.920Z,77.65
2019-05-05T05:44:48.380Z,79.55
2019-05-05T05:47:35.285Z,81.28
2019-05-05T05:50:11.394Z,86.05
2019-05-05T05:52:40.659Z,88.15
2019-05-05T05:55:10.046Z,89.41
2019-05-05T05:57:39.216Z,89.73
2019-05-05T06:00:09.010Z,89.45
2019-05-05T06:02:38.193Z,88.82
2019-05-05T06:05:07.440Z,88.44
2019-05-05T06:07:36.650Z,88.29
2019-05-05T06:10:05.985Z,88.07
2019-05-05T06:12:35.184Z,87.24
2019-05-05T06:15:04.747Z,86.38
2019-05-05T06:17:34.395Z,86.64
2019-05-05T06:20:04.133Z,84.88
2019-05-05T06:22:34.333Z,84.20
2019-05-05T06:25:06.456Z,83.45
2019-05-05T06:27:34.663Z,81.99
2019-05-05T06:30:04.550Z,81.05
2019-05-05T06:32:34.326Z,80.57
2019-05-05T06:35:03.769Z,80.89
2019-05-05T06:37:34.278Z,81.29
2019-05-05T06:40:08.310Z,80.69
2019-05-05T06:42:48.700Z,79.75
2019-05-05T06:45:38.018Z,78.68
2019-05-05T06:48:07.136Z,75.95
2019-05-05T06:50:36.359Z,74.44
2019-05-05T06:53:05.573Z,72.73
2019-05-05T06:55:34.733Z,70.59
2019-05-05T06:58:04.620Z,69.90
2019-05-05T07:00:34.688Z,71.24
2019-05-05T07:03:07.669Z,66.47
2019-05-05T07:05:34.756Z,67.50
2019-05-05T07:08:04.547Z,65.27
2019-05-05T07:10:33.999Z,64.35
2019-05-05T07:13:04.954Z,63.34
2019-05-05T07:15:34.445Z,64.58
2019-05-05T07:18:03.858Z,63.26
2019-05-05T07:20:34.678Z,61.97
2019-05-05T07:23:05.427Z,61.69
2019-05-05T07:25:42.869Z,60.12
2019-05-05T07:28:05.977Z,59.00
2019-05-05T07:30:35.222Z,60.15
2019-05-05T07:33:04.695Z,59.17
2019-05-05T07:35:54.888Z,58.94
2019-05-05T07:38:13.839Z,58.05
2019-05-05T07:40:43.948Z,55.90
2019-05-05T07:43:14.750Z,56.07
2019-05-05T07:45:44.662Z,55.68
2019-05-05T07:48:14.007Z,53.04
2019-05-05T07:50:47.963Z,52.50
2019-05-05T07:53:17.642Z,50.90
2019-05-05T07:55:47.045Z,50.92
2019-05-05T07:58:16.459Z,50.17
2019-05-05T08:00:45.652Z,50.24
2019-05-05T08:03:14.941Z,52.71
2019-05-05T08:05:44.360Z,53.41
2019-05-05T08:08:14.006Z,49.87
2019-05-05T08:10:43.857Z,49.65
2019-05-05T08:13:14.150Z,50.74
2019-05-05T08:15:56.657Z,50.50
2019-05-05T08:18:28.137Z,47.83
2019-05-05T08:20:59.837Z,43.94
2019-05-05T08:23:35.991Z,46.02
2019-05-05T08:26:13.607Z,47.32
2019-05-05T08:29:07.280Z,49.02
2019-05-05T08:31:53.890Z,49.13
2019-05-05T08:34:24.465Z,46.29
2019-05-05T08:36:53.861Z,46.76
2019-05-05T08:39:24.430Z,47.93
2019-05-05T08:41:53.972Z,48.90
2019-05-05T08:44:23.653Z,47.99
2019-05-05T08:46:53.800Z,47.80
2019-05-05T08:49:24.434Z,48.49
2019-05-05T08:51:54.684Z,46.78
2019-05-05T08:54:24.311Z,45.52
2019-05-05T08:56:55.006Z,45.14
2019-05-05T08:59:24.359Z,43.32
2019-05-05T09:01:54.212Z,44.53
2019-05-05T09:04:24.693Z,42.65
2019-05-05T09:06:54.420Z,41.20
2019-05-05T09:09:24.229Z,39.44
2019-05-05T09:11:54.195Z,37.53
2019-05-05T09:14:24.112Z,38.41
2019-05-05T09:16:53.768Z,39.95
2019-05-05T09:19:24.001Z,41.30
2019-05-05T09:21:54.164Z,40.92
2019-05-05T09:24:37.750Z,38.32
2019-05-05T09:27:14.133Z,39.24
2019-05-05T09:29:44.058Z,38.58
2019-05-05T09:32:14.002Z,38.97
2019-05-05T09:34:43.697Z,39.64
2019-05-05T09:37:14.379Z,39.46
2019-05-05T09:39:43.965Z,39.43
2019-05-05T09:42:14.517Z,37.78
2019-05-05T09:44:43.961Z,37.87
2019-05-05T09:47:13.843Z,41.94
2019-05-05T09:49:44.550Z,43.33
2019-05-05T09:52:14.200Z,45.10
2019-05-05T09:54:43.953Z,45.66
2019-05-05T09:57:14.518Z,41.02
2019-05-05T09:59:44.407Z,38.06
2019-05-05T10:02:13.804Z,35.82
2019-05-05T10:04:44.091Z,33.32
2019-05-05T10:07:13.848Z,38.72
2019-05-05T10:09:43.894Z,39.41
2019-05-05T10:12:13.158Z,38.56
2019-05-05T10:14:44.736Z,38.07
2019-05-05T10:17:14.185Z,35.58
2019-05-05T10:19:44.040Z,34.38
2019-05-05T10:22:14.803Z,36.14
2019-05-05T10:24:50.370Z,34.26
2019-05-05T10:27:19.559Z,35.69
2019-05-05T10:29:48.754Z,35.69
2019-05-05T10:32:18.018Z,36.11
2019-05-05T10:35:01.311Z,35.54
2019-05-05T10:37:30.542Z,31.80
2019-05-05T10:39:59.727Z,33.70
2019-05-05T10:42:47.879Z,31.36
2019-05-05T10:45:17.321Z,29.69
2019-05-05T10:47:46.548Z,28.95
2019-05-05T10:50:17.464Z,31.48
2019-05-05T10:52:47.289Z,32.37
2019-05-05T10:55:17.628Z,34.21
2019-05-05T10:57:46.836Z,33.50
2019-05-05T11:00:18.934Z,36.09
2019-05-05T11:02:48.272Z,36.50
2019-05-05T11:05:17.781Z,36.49
2019-05-05T11:07:46.965Z,36.35
2019-05-05T11:10:19.921Z,35.41
2019-05-05T11:12:49.276Z,34.39
2019-05-05T11:15:18.623Z,32.75
2019-05-05T11:17:47.773Z,30.45
2019-05-05T11:20:17.162Z,29.04
2019-05-05T11:22:46.413Z,28.27
2019-05-05T11:25:15.705Z,27.76
2019-05-05T11:27:44.913Z,28.04
2019-05-05T11:30:24.922Z,28.54
2019-05-05T11:33:10.884Z,33.32
2019-05-05T11:35:50.389Z,35.66
2019-05-05T11:38:19.662Z,37.16
2019-05-05T11:40:51.281Z,37.56
2019-05-05T11:43:20.468Z,35.89
2019-05-05T11:45:49.761Z,33.96
2019-05-05T11:48:19.010Z,34.46
2019-05-05T11:50:48.203Z,33.49
2019-05-05T11:53:17.482Z,31.54
2019-05-05T11:55:46.690Z,32.71
2019-05-05T11:58:16.038Z,36.22
2019-05-05T12:00:45.318Z,36.67
2019-05-05T12:03:14.614Z,37.79
2019-05-05T12:05:44.377Z,37.43
2019-05-05T12:08:14.609Z,36.74
2019-05-05T12:10:56.523Z,34.66
2019-05-05T12:13:25.727Z,36.75
2019-05-05T12:15:59.657Z,37.46
2019-05-05T12:18:29.643Z,36.58
2019-05-05T12:20:58.836Z,33.70
2019-05-05T12:23:28.120Z,32.06
2019-05-05T12:26:31.347Z,30.89
2019-05-05T12:29:03.894Z,30.98
2019-05-05T12:31:33.962Z,33.07
2019-05-05T12:34:03.965Z,35.75
2019-05-05T12:36:34.169Z,35.01
2019-05-05T12:39:05.733Z,36.71
2019-05-05T12:41:35.022Z,36.71
2019-05-05T12:44:05.503Z,33.74
2019-05-05T12:47:01.412Z,34.38
2019-05-05T12:49:30.593Z,34.83
2019-05-05T12:51:59.879Z,36.51
2019-05-05T12:54:29.092Z,37.41
2019-05-05T12:56:58.338Z,37.75
2019-05-05T12:59:27.699Z,38.33
2019-05-05T13:01:57.262Z,38.26
2019-05-05T13:04:26.631Z,38.46
2019-05-05T13:06:55.915Z,39.09
2019-05-05T13:09:25.384Z,38.78
2019-05-05T13:11:54.760Z,38.73
2019-05-05T13:14:24.184Z,37.46
2019-05-05T13:16:56.003Z,35.91
2019-05-05T13:19:39.598Z,34.57
2019-05-05T13:22:26.568Z,32.88
2019-05-05T13:25:27.116Z,37.92
2019-05-05T13:27:57.398Z,37.92
2019-05-05T13:30:26.856Z,37.85
2019-05-05T13:32:56.109Z,37.52
2019-05-05T13:35:25.329Z,38.52
2019-05-05T13:37:55.031Z,40.47
2019-05-05T13:40:24.361Z,39.97
2019-05-05T13:42:54.705Z,40.02
2019-05-05T13:45:30.826Z,39.43
2019-05-05T13:48:00.269Z,38.49
2019-05-05T13:50:38.520Z,38.20
2019-05-05T13:53:07.690Z,37.30
2019-05-05T13:55:36.948Z,35.73
2019-05-05T13:58:08.710Z,35.71
2019-05-05T14:00:37.159Z,33.54
2019-05-05T14:03:06.302Z,34.99
2019-05-05T14:05:35.680Z,33.38
2019-05-05T14:08:05.016Z,33.92
2019-05-05T14:10:34.362Z,34.50
2019-05-05T14:13:03.852Z,34.42
2019-05-05T14:15:34.156Z,34.72
2019-05-05T14:18:03.859Z,33.46
2019-05-05T14:20:34.506Z,33.27
2019-05-05T14:23:04.072Z,36.44
2019-05-05T14:25:33.303Z,36.44
2019-05-05T14:28:03.801Z,38.25
2019-05-05T14:31:01.439Z,38.18
2019-05-05T14:33:34.644Z,38.25
2019-05-05T14:36:25.866Z,38.27
2019-05-05T14:38:57.042Z,37.64
2019-05-05T14:41:28.353Z,38.03
2019-05-05T14:43:57.716Z,38.35
2019-05-05T14:46:27.283Z,39.86
2019-05-05T14:48:56.485Z,40.10
2019-05-05T14:51:25.687Z,39.48
2019-05-05T14:53:54.881Z,40.24
2019-05-05T14:56:35.712Z,40.17
2019-05-05T14:58:54.893Z,40.73
2019-05-05T15:01:24.715Z,40.23
2019-05-05T15:03:53.989Z,40.87
2019-05-05T15:06:43.958Z,40.34
2019-05-05T15:09:24.767Z,40.77
2019-05-05T15:12:15.824Z,39.79
2019-05-05T15:14:45.022Z,41.44
2019-05-05T15:17:14.308Z,40.29
2019-05-05T15:19:43.718Z,38.65
2019-05-05T15:22:15.012Z,38.54
2019-05-05T15:24:44.215Z,37.99
2019-05-05T15:27:13.430Z,36.39
2019-05-05T15:29:43.628Z,37.47
2019-05-05T15:32:14.802Z,40.11
2019-05-05T15:34:43.991Z,40.04
2019-05-05T15:37:14.453Z,41.33
2019-05-05T15:39:44.239Z,40.75
2019-05-05T15:42:13.676Z,41.11
2019-05-05T15:44:43.946Z,41.10
2019-05-05T15:47:13.143Z,40.43
2019-05-05T15:49:44.098Z,40.87
2019-05-05T15:52:13.802Z,40.59
2019-05-05T15:54:44.642Z,39.39
2019-05-05T15:57:14.811Z,39.84
2019-05-05T15:59:44.923Z,40.42
2019-05-05T16:02:14.132Z,39.42
2019-05-05T16:04:43.468Z,40.82
2019-05-05T16:07:13.830Z,41.40
2019-05-05T16:09:44.353Z,40.80
2019-05-05T16:12:14.432Z,40.61
2019-05-05T16:14:54.788Z,39.66
2019-05-05T16:17:34.192Z,40.22
2019-05-05T16:20:11.519Z,39.85
2019-05-05T16:22:44.471Z,39.03
2019-05-05T16:25:14.427Z,40.95
2019-05-05T16:27:45.286Z,41.88
2019-05-05T16:30:15.651Z,44.19
2019-05-05T16:32:44.943Z,43.09
2019-05-05T16:35:14.679Z,42.33
2019-05-05T16:37:43.876Z,42.51
2019-05-05T16:40:15.364Z,43.19
2019-05-05T16:42:44.714Z,43.13
2019-05-05T16:45:16.495Z,43.11
2019-05-05T16:47:54.631Z,42.95
2019-05-05T16:50:25.079Z,43.44
2019-05-05T16:53:03.920Z,44.07
2019-05-05T16:55:47.008Z,45.81
2019-05-05T16:58:16.338Z,44.99
2019-05-05T17:00:45.876Z,45.96
2019-05-05T17:03:15.178Z,45.97
2019-05-05T17:05:46.832Z,47.08
2019-05-05T17:08:15.399Z,47.72
2019-05-05T17:10:44.669Z,48.23
2019-05-05T17:13:29.736Z,49.11
2019-05-05T17:16:23.740Z,49.60
2019-05-05T17:18:58.785Z,50.02
2019-05-05T17:21:34.135Z,49.76
2019-05-05T17:24:03.464Z,49.66
2019-05-05T17:26:35.326Z,49.84
2019-05-05T17:29:03.982Z,49.99
2019-05-05T17:31:33.997Z,50.41
2019-05-05T17:34:04.189Z,50.57
2019-05-05T17:36:33.781Z,51.40
2019-05-05T17:39:03.275Z,52.68
2019-05-05T17:41:53.992Z,52.61
2019-05-05T17:44:29.687Z,52.54
2019-05-05T17:47:06.726Z,52.14
2019-05-05T17:49:55.768Z,52.53
2019-05-05T17:52:39.039Z,53.39
2019-05-05T17:55:27.692Z,54.00
2019-05-05T17:58:02.349Z,53.62
2019-05-05T18:00:34.324Z,53.90
2019-05-05T18:03:04.397Z,54.01
2019-05-05T18:05:51.161Z,54.87
2019-05-05T18:08:38.413Z,55.11
2019-05-05T18:11:13.938Z,56.32
2019-05-05T18:13:48.003Z,53.40
2019-05-05T18:16:23.768Z,51.37
2019-05-05T18:18:52.465Z,51.63
2019-05-05T18:21:23.641Z,51.21
2019-05-05T18:23:54.562Z,51.48
2019-05-05T18:26:24.395Z,51.19
2019-05-05T18:28:54.037Z,51.63
2019-05-05T18:31:24.278Z,51.96
2019-05-05T18:33:54.373Z,52.73
2019-05-05T18:36:23.664Z,52.68
2019-05-05T18:38:53.851Z,55.83
2019-05-05T18:41:30.162Z,53.07
2019-05-05T18:44:13.307Z,55.00
2019-05-05T18:46:43.607Z,57.78
2019-05-05T18:49:13.895Z,58.30
2019-05-05T18:51:43.919Z,59.64
2019-05-05T18:54:13.229Z,61.77
2019-05-05T18:56:44.011Z,62.67
2019-05-05T18:59:13.478Z,63.75
2019-05-05T19:02:03.595Z,64.38
2019-05-05T19:04:53.768Z,65.12
2019-05-05T19:07:33.667Z,65.58
2019-05-05T19:10:04.046Z,66.72
2019-05-05T19:12:34.652Z,68.24
2019-05-05T19:15:04.463Z,68.38
2019-05-05T19:17:34.493Z,69.05
2019-05-05T19:20:09.567Z,69.97
2019-05-05T19:22:39.025Z,70.63
2019-05-05T19:25:17.540Z,71.05
2019-05-05T19:27:47.186Z,72.98
2019-05-05T19:30:17.400Z,74.52
2019-05-05T19:32:46.548Z,75.12
2019-05-05T19:35:15.841Z,74.93
2019-05-05T19:37:45.124Z,74.52
2019-05-05T19:40:15.918Z,75.23
2019-05-05T19:42:46.264Z,75.61
2019-05-05T19:45:16.967Z,75.90
2019-05-05T19:47:46.273Z,76.93
2019-05-05T19:50:24.447Z,77.57
2019-05-05T19:52:54.151Z,78.35
2019-05-05T19:55:23.524Z,77.55
2019-05-05T19:57:54.051Z,77.02
2019-05-05T20:00:26.379Z,76.79
2019-05-05T20:03:04.632Z,75.92
2019-05-05T20:05:27.462Z,76.94
2019-05-05T20:07:56.810Z,78.15
2019-05-05T20:10:26.260Z,79.04
2019-05-05T20:12:55.548Z,79.12
2019-05-05T20:15:34.253Z,78.82
2019-05-05T20:18:04.630Z,79.49
2019-05-05T20:20:34.085Z,79.60
2019-05-05T20:23:04.196Z,80.68
2019-05-05T20:25:34.090Z,82.57
2019-05-05T20:28:03.996Z,83.20
2019-05-05T20:30:34.270Z,83.52
2019-05-05T20:33:08.914Z,83.01
2019-05-05T20:35:54.970Z,82.45
2019-05-05T20:38:49.381Z,81.94
2019-05-05T20:41:20.030Z,81.20
2019-05-05T20:43:49.268Z,82.22
2019-05-05T20:46:18.548Z,82.35
2019-05-05T20:48:47.863Z,82.30
2019-05-05T20:51:17.063Z,81.85
2019-05-05T20:53:49.053Z,81.31
2019-05-05T20:56:20.474Z,81.74
2019-05-05T20:58:48.210Z,82.12
2019-05-05T21:01:17.485Z,81.93
2019-05-05T21:03:46.860Z,81.13
2019-05-05T21:06:16.002Z,81.28
2019-05-05T21:08:45.202Z,82.27
2019-05-05T21:11:14.430Z,82.15
2019-05-05T21:13:45.177Z,81.81
2019-05-05T21:16:14.718Z,81.24
2019-05-05T21:18:43.998Z,80.77
2019-05-05T21:21:18.721Z,80.81
2019-05-05T21:23:58.799Z,81.45
2019-05-05T21:26:48.165Z,81.24
2019-05-05T21:29:17.441Z,80.74
2019-05-05T21:31:46.635Z,81.01
2019-05-05T21:34:15.892Z,81.61
2019-05-05T21:36:45.059Z,82.87
2019-05-05T21:39:14.983Z,83.48
2019-05-05T21:41:44.269Z,82.55
2019-05-05T21:44:14.689Z,81.77
2019-05-05T21:46:44.091Z,81.18
2019-05-05T21:49:13.760Z,81.12
2019-05-05T21:52:08.286Z,80.93
2019-05-05T21:54:43.962Z,80.63
2019-05-05T21:57:30.980Z,80.79
2019-05-05T22:00:00.144Z,80.55
2019-05-05T22:02:29.358Z,80.34
2019-05-05T22:04:58.559Z,79.48
2019-05-05T22:07:27.734Z,79.72
2019-05-05T22:09:56.982Z,79.86
2019-05-05T22:12:26.223Z,79.60
2019-05-05T22:14:55.680Z,80.41
2019-05-05T22:17:25.424Z,79.77
2019-05-05T22:20:14.362Z,78.71
2019-05-05T22:22:45.062Z,78.69
2019-05-05T22:25:14.258Z,78.44
2019-05-05T22:27:44.138Z,77.72
2019-05-05T22:30:14.242Z,78.17
2019-05-05T22:32:44.208Z,78.07
2019-05-05T22:35:14.071Z,77.93
2019-05-05T22:37:44.371Z,78.23
2019-05-05T22:40:20.647Z,78.31
2019-05-05T22:42:50.873Z,78.24
2019-05-05T22:45:20.140Z,77.65
2019-05-05T22:47:49.373Z,77.06
2019-05-05T22:50:18.696Z,77.09
2019-05-05T22:52:47.855Z,77.23
2019-05-05T22:55:17.187Z,77.28
2019-05-05T22:57:46.287Z,77.44
2019-05-05T23:00:28.345Z,76.55
2019-05-05T23:02:54.930Z,77.29
2019-05-05T23:05:55.262Z,77.71
2019-05-05T23:08:24.446Z,78.01
2019-05-05T23:10:54.456Z,77.22
2019-05-05T23:13:23.820Z,77.17
2019-05-05T23:16:04.112Z,76.41
2019-05-05T23:18:34.744Z,76.02
2019-05-05T23:21:21.415Z,76.25
2019-05-05T23:24:09.599Z,76.22
2019-05-05T23:26:39.788Z,76.44
2019-05-05T23:29:08.970Z,76.33
2019-05-05T23:31:38.163Z,75.90
2019-05-05T23:34:07.338Z,76.53
2019-05-05T23:36:36.487Z,76.50
2019-05-05T23:39:07.268Z,76.24
2019-05-05T23:41:37.136Z,76.66
2019-05-05T23:44:07.380Z,77.36
2019-05-05T23:46:36.546Z,77.18
2019-05-05T23:49:05.658Z,77.25
2019-05-05T23:51:39.100Z,76.57
2019-05-05T23:54:08.592Z,76.80
2019-05-05T23:56:37.717Z,76.89
2019-05-05T23:59:07.002Z,76.67
